createdAt,value
2022-12-31T00:01:05.598Z,9.10
2022-12-31T00:03:34.009Z,9.10
2022-12-31T00:06:02.697Z,5.90
2022-12-31T00:08:30.489Z,8.50
2022-12-31T00:10:58.412Z,8.70
2022-12-31T00:13:26.152Z,7.10
2022-12-31T00:15:53.919Z,7.80
2022-12-31T00:18:21.655Z,9.10
2022-12-31T00:20:49.355Z,8.70
2022-12-31T00:23:17.101Z,7.70
2022-12-31T00:25:44.885Z,8.80
2022-12-31T00:28:12.680Z,9.40
2022-12-31T00:30:40.645Z,8.80
2022-12-31T00:33:08.356Z,8.70
2022-12-31T00:35:36.565Z,8.20
2022-12-31T00:38:04.444Z,8.40
2022-12-31T00:40:32.169Z,7.20
2022-12-31T00:42:59.926Z,8.80
2022-12-31T00:45:27.680Z,7.30
2022-12-31T00:47:55.587Z,8.00
2022-12-31T00:50:23.437Z,8.00
2022-12-31T00:52:51.206Z,8.80
2022-12-31T00:55:19.729Z,8.80
2022-12-31T00:57:47.470Z,6.20
2022-12-31T01:00:16.098Z,7.80
2022-12-31T01:02:44.045Z,6.30
2022-12-31T01:05:11.985Z,8.20
2022-12-31T01:07:39.753Z,8.90
2022-12-31T01:10:08.201Z,6.60
2022-12-31T01:12:36.058Z,7.30
2022-12-31T01:15:04.267Z,6.30
2022-12-31T01:17:32.055Z,5.50
2022-12-31T01:19:59.835Z,5.80
2022-12-31T01:22:27.626Z,4.00
2022-12-31T01:24:55.370Z,3.50
2022-12-31T01:27:23.068Z,3.10
2022-12-31T01:29:50.822Z,4.20
2022-12-31T01:32:18.514Z,4.80
2022-12-31T01:34:47.430Z,4.20
2022-12-31T01:37:15.176Z,3.40
2022-12-31T01:39:42.952Z,3.10
2022-12-31T01:42:11.886Z,4.10
2022-12-31T01:44:39.675Z,3.60
2022-12-31T01:47:15.020Z,3.80
2022-12-31T01:49:45.383Z,3.90
2022-12-31T01:52:42.860Z,4.40
2022-12-31T01:55:21.762Z,3.10
2022-12-31T01:57:52.099Z,3.00
2022-12-31T02:00:20.037Z,4.10
2022-12-31T02:02:47.919Z,3.50
2022-12-31T02:05:30.966Z,5.20
2022-12-31T02:07:58.992Z,3.40
2022-12-31T02:10:26.775Z,3.10
2022-12-31T02:12:54.761Z,2.80
2022-12-31T02:15:49.100Z,2.40
2022-12-31T02:18:38.524Z,3.40
2022-12-31T02:21:35.101Z,2.60
2022-12-31T02:24:22.248Z,3.00
2022-12-31T02:26:54.173Z,2.40
2022-12-31T02:29:48.498Z,3.30
2022-12-31T02:32:22.306Z,2.70
2022-12-31T02:35:01.096Z,2.60
2022-12-31T02:37:30.715Z,2.80
2022-12-31T02:39:59.123Z,3.40
2022-12-31T02:42:26.944Z,2.30
2022-12-31T02:44:54.733Z,3.90
2022-12-31T02:48:00.521Z,2.60
2022-12-31T02:50:57.022Z,2.10
2022-12-31T02:53:57.143Z,3.10
2022-12-31T02:56:35.316Z,2.40
2022-12-31T02:59:25.735Z,2.80
2022-12-31T03:02:14.283Z,4.20
2022-12-31T03:04:49.868Z,2.50
2022-12-31T03:07:23.965Z,2.40
2022-12-31T03:09:52.195Z,3.50
2022-12-31T03:12:48.020Z,3.90
2022-12-31T03:15:22.400Z,3.50
2022-12-31T03:18:08.320Z,3.20
2022-12-31T03:21:07.360Z,3.60
2022-12-31T03:23:40.684Z,3.50
2022-12-31T03:26:12.345Z,3.50
2022-12-31T03:28:41.980Z,3.20
2022-12-31T03:31:09.848Z,4.10
2022-12-31T03:33:39.857Z,2.90
2022-12-31T03:36:11.284Z,3.40
2022-12-31T03:38:39.761Z,3.80
2022-12-31T03:41:10.820Z,4.00
2022-12-31T03:43:38.640Z,3.10
2022-12-31T03:46:06.522Z,3.80
2022-12-31T03:48:34.424Z,4.80
2022-12-31T03:51:02.172Z,4.80
2022-12-31T03:53:30.306Z,3.20
2022-12-31T03:55:58.129Z,4.90
2022-12-31T03:58:25.972Z,5.20
2022-12-31T04:00:53.821Z,4.20
2022-12-31T04:03:21.866Z,3.90
2022-12-31T04:05:56.077Z,4.00
2022-12-31T04:08:24.778Z,5.20
2022-12-31T04:10:52.669Z,4.40
2022-12-31T04:13:20.454Z,3.60
2022-12-31T04:15:52.126Z,4.10
2022-12-31T04:18:19.918Z,5.70
2022-12-31T04:20:47.696Z,5.20
2022-12-31T04:23:15.536Z,4.70
2022-12-31T04:25:43.272Z,4.50
2022-12-31T04:28:12.192Z,5.10
2022-12-31T04:30:40.219Z,4.40
2022-12-31T04:33:08.045Z,4.50
2022-12-31T04:35:35.819Z,5.40
2022-12-31T04:38:04.132Z,4.40
2022-12-31T04:40:32.244Z,5.90
2022-12-31T04:42:59.993Z,5.10
2022-12-31T04:45:27.722Z,4.40
2022-12-31T04:47:55.436Z,7.20
2022-12-31T04:50:23.186Z,4.40
2022-12-31T04:52:50.925Z,4.90
2022-12-31T04:55:18.692Z,4.80
2022-12-31T04:57:46.413Z,5.70
2022-12-31T05:00:14.696Z,4.70
2022-12-31T05:02:42.606Z,4.00
2022-12-31T05:05:10.526Z,4.40
2022-12-31T05:07:38.358Z,3.00
2022-12-31T05:10:06.691Z,4.80
2022-12-31T05:12:34.455Z,6.10
2022-12-31T05:15:02.274Z,4.80
2022-12-31T05:17:30.463Z,4.50
2022-12-31T05:19:58.184Z,2.40
2022-12-31T05:22:28.959Z,4.50
2022-12-31T05:24:57.956Z,3.00
2022-12-31T05:27:26.091Z,4.30
2022-12-31T05:29:53.839Z,3.20
2022-12-31T05:32:21.616Z,3.90
2022-12-31T05:34:49.348Z,3.40
2022-12-31T05:37:17.100Z,2.40
2022-12-31T05:39:44.819Z,2.70
2022-12-31T05:42:12.543Z,3.10
2022-12-31T05:44:40.346Z,2.80
2022-12-31T05:47:08.154Z,2.30
2022-12-31T05:49:35.977Z,2.90
2022-12-31T05:52:04.120Z,2.20
2022-12-31T05:54:31.857Z,4.50
2022-12-31T05:56:59.802Z,2.10
2022-12-31T05:59:27.512Z,1.80
2022-12-31T06:01:55.578Z,1.70
2022-12-31T06:04:23.511Z,1.90
2022-12-31T06:06:51.255Z,2.30
2022-12-31T06:09:19.652Z,2.30
2022-12-31T06:11:47.628Z,2.70
2022-12-31T06:14:15.553Z,3.90
2022-12-31T06:16:43.359Z,1.90
2022-12-31T06:19:11.136Z,2.70
2022-12-31T06:21:39.038Z,2.60
2022-12-31T06:24:07.481Z,2.60
2022-12-31T06:26:35.394Z,2.30
2022-12-31T06:29:03.185Z,4.40
2022-12-31T06:31:30.978Z,3.00
2022-12-31T06:33:59.138Z,2.80
2022-12-31T06:36:27.184Z,3.10
2022-12-31T06:38:55.510Z,2.50
2022-12-31T06:41:23.263Z,3.40
2022-12-31T06:43:51.114Z,2.80
2022-12-31T06:46:19.010Z,3.80
2022-12-31T06:48:46.822Z,3.90
2022-12-31T06:51:20.549Z,3.20
2022-12-31T06:53:49.968Z,3.70
2022-12-31T06:56:33.072Z,6.10
2022-12-31T06:59:03.602Z,3.40
2022-12-31T07:01:40.376Z,2.90
2022-12-31T07:04:34.683Z,2.50
2022-12-31T07:07:26.823Z,2.30
2022-12-31T07:10:06.807Z,2.90
2022-12-31T07:12:40.416Z,2.90
2022-12-31T07:15:17.481Z,3.10
2022-12-31T07:18:04.836Z,3.20
2022-12-31T07:20:33.114Z,5.40
2022-12-31T07:23:01.651Z,2.80
2022-12-31T07:25:30.085Z,2.50
2022-12-31T07:28:15.997Z,4.00
2022-12-31T07:30:54.749Z,3.90
2022-12-31T07:33:39.023Z,3.00
2022-12-31T07:36:22.649Z,1.70
2022-12-31T07:38:55.284Z,2.00
2022-12-31T07:41:45.147Z,2.30
2022-12-31T07:44:51.192Z,1.80
2022-12-31T07:47:24.340Z,1.50
2022-12-31T07:49:53.716Z,2.00
2022-12-31T07:52:22.622Z,2.20
2022-12-31T07:54:50.517Z,2.20
2022-12-31T07:57:19.735Z,2.70
2022-12-31T07:59:56.607Z,1.20
2022-12-31T08:02:42.900Z,1.70
2022-12-31T08:05:35.830Z,1.90
2022-12-31T08:08:22.181Z,1.20
2022-12-31T08:11:05.091Z,1.20
2022-12-31T08:13:33.613Z,1.90
2022-12-31T08:16:02.843Z,1.90
2022-12-31T08:18:33.918Z,1.30
2022-12-31T08:21:35.254Z,1.50
2022-12-31T08:24:36.294Z,1.50
2022-12-31T08:27:12.853Z,1.40
2022-12-31T08:29:51.019Z,2.30
2022-12-31T08:32:33.703Z,1.80
2022-12-31T08:35:20.910Z,1.80
2022-12-31T08:38:06.292Z,1.70
2022-12-31T08:40:50.057Z,2.20
2022-12-31T08:43:40.412Z,1.80
2022-12-31T08:46:19.872Z,1.10
2022-12-31T08:48:48.618Z,1.60
2022-12-31T08:51:22.201Z,1.20
2022-12-31T08:53:50.941Z,1.60
2022-12-31T08:56:29.024Z,2.10
2022-12-31T08:59:28.008Z,1.90
2022-12-31T09:02:08.078Z,1.00
2022-12-31T09:05:02.475Z,4.10
2022-12-31T09:07:53.144Z,6.30
2022-12-31T09:10:35.227Z,2.40
2022-12-31T09:13:16.281Z,1.40
2022-12-31T09:15:49.493Z,1.10
2022-12-31T09:18:17.717Z,1.40
2022-12-31T09:20:45.672Z,1.90
2022-12-31T09:23:14.064Z,1.60
2022-12-31T09:25:49.680Z,1.10
2022-12-31T09:28:46.686Z,1.10
2022-12-31T09:31:33.863Z,2.00
2022-12-31T09:34:08.207Z,2.00
2022-12-31T09:36:43.798Z,1.10
2022-12-31T09:39:22.430Z,0.70
2022-12-31T09:42:23.731Z,3.00
2022-12-31T09:45:19.788Z,1.80
2022-12-31T09:47:47.489Z,0.90
2022-12-31T09:50:33.829Z,1.20
2022-12-31T09:53:19.167Z,1.50
2022-12-31T09:55:59.663Z,1.70
2022-12-31T09:58:57.468Z,1.10
2022-12-31T10:01:31.397Z,1.30
2022-12-31T10:04:08.455Z,1.90
2022-12-31T10:07:01.366Z,1.50
2022-12-31T10:09:42.943Z,1.90
2022-12-31T10:12:46.190Z,2.60
2022-12-31T10:15:34.119Z,2.10
2022-12-31T10:18:12.834Z,2.10
2022-12-31T10:21:00.291Z,2.40
2022-12-31T10:23:46.568Z,2.30
2022-12-31T10:26:31.435Z,3.10
2022-12-31T10:29:20.981Z,1.90
2022-12-31T10:32:03.762Z,2.50
2022-12-31T10:34:50.122Z,2.40
2022-12-31T10:37:29.970Z,2.00
2022-12-31T10:40:10.294Z,2.60
2022-12-31T10:43:15.917Z,2.50
2022-12-31T10:46:05.105Z,2.10
2022-12-31T10:49:08.352Z,2.80
2022-12-31T10:51:53.904Z,3.00
2022-12-31T10:54:24.539Z,2.40
2022-12-31T10:57:23.364Z,1.90
2022-12-31T11:00:00.523Z,2.10
2022-12-31T11:03:00.253Z,2.60
2022-12-31T11:05:47.015Z,2.40
2022-12-31T11:08:21.920Z,2.00
2022-12-31T11:11:26.653Z,2.60
2022-12-31T11:14:00.694Z,2.40
2022-12-31T11:16:37.684Z,2.50
2022-12-31T11:19:14.499Z,3.40
2022-12-31T11:21:59.132Z,2.30
2022-12-31T11:24:52.315Z,2.80
2022-12-31T11:27:46.116Z,2.20
2022-12-31T11:30:48.329Z,1.80
2022-12-31T11:33:46.818Z,2.00
2022-12-31T11:37:06.703Z,1.90
2022-12-31T11:39:52.112Z,2.40
2022-12-31T11:42:38.826Z,2.20
2022-12-31T11:45:31.632Z,3.50
2022-12-31T11:48:37.466Z,2.20
2022-12-31T11:51:24.235Z,2.30
2022-12-31T11:54:17.058Z,1.80
2022-12-31T11:56:50.591Z,2.70
2022-12-31T11:59:19.884Z,2.10
2022-12-31T12:01:56.125Z,2.20
2022-12-31T12:04:24.127Z,1.90
2022-12-31T12:06:52.526Z,2.90
2022-12-31T12:09:32.007Z,2.40
2022-12-31T12:12:04.809Z,2.40
2022-12-31T12:14:38.685Z,2.00
2022-12-31T12:17:14.967Z,2.60
2022-12-31T12:19:45.923Z,2.30
2022-12-31T12:22:21.336Z,2.20
2022-12-31T12:25:16.238Z,2.30
2022-12-31T12:27:44.094Z,3.80
2022-12-31T12:30:19.358Z,2.40
2022-12-31T12:32:55.394Z,4.30
2022-12-31T12:35:29.923Z,2.50
2022-12-31T12:38:15.016Z,2.60
2022-12-31T12:40:53.848Z,2.30
2022-12-31T12:43:27.163Z,2.20
2022-12-31T12:46:01.074Z,3.70
2022-12-31T12:48:42.546Z,2.30
2022-12-31T12:51:19.459Z,2.70
2022-12-31T12:54:18.593Z,2.20
2022-12-31T12:57:01.378Z,2.80
2022-12-31T12:59:47.394Z,3.50
2022-12-31T13:02:48.993Z,4.00
2022-12-31T13:05:28.218Z,3.10
2022-12-31T13:08:09.375Z,2.50
2022-12-31T13:10:58.083Z,3.60
2022-12-31T13:13:54.268Z,2.60
2022-12-31T13:16:59.894Z,4.50
2022-12-31T13:19:37.035Z,3.80
2022-12-31T13:22:27.168Z,3.60
2022-12-31T13:25:19.802Z,4.00
2022-12-31T13:27:50.502Z,3.70
2022-12-31T13:30:25.458Z,4.30
2022-12-31T13:32:58.520Z,3.60
2022-12-31T13:35:53.759Z,3.00
2022-12-31T13:38:31.932Z,3.10
2022-12-31T13:41:17.227Z,2.70
2022-12-31T13:43:58.471Z,3.90
2022-12-31T13:46:35.735Z,4.60
2022-12-31T13:49:10.674Z,3.20
2022-12-31T13:51:46.476Z,4.70
2022-12-31T13:54:42.614Z,4.40
2022-12-31T13:57:41.521Z,5.50
2022-12-31T14:00:19.792Z,5.30
2022-12-31T14:02:54.079Z,5.70
2022-12-31T14:05:37.805Z,5.50
2022-12-31T14:08:06.462Z,3.20
2022-12-31T14:10:42.670Z,3.20
2022-12-31T14:13:38.287Z,5.00
2022-12-31T14:16:18.643Z,4.40
2022-12-31T14:19:21.361Z,4.10
2022-12-31T14:22:03.381Z,3.30
2022-12-31T14:24:42.313Z,3.40
2022-12-31T14:27:36.985Z,4.60
2022-12-31T14:30:07.433Z,3.20
2022-12-31T14:33:06.454Z,3.10
2022-12-31T14:35:56.677Z,3.00
2022-12-31T14:38:51.077Z,4.80
2022-12-31T14:41:40.503Z,2.80
2022-12-31T14:44:27.850Z,3.10
2022-12-31T14:47:37.095Z,3.00
2022-12-31T14:50:27.361Z,3.00
2022-12-31T14:53:04.493Z,2.70
2022-12-31T14:55:37.326Z,4.50
2022-12-31T14:58:28.205Z,4.20
2022-12-31T15:00:59.696Z,4.10
2022-12-31T15:03:30.901Z,3.40
2022-12-31T15:06:13.829Z,4.00
2022-12-31T15:08:49.516Z,6.80
2022-12-31T15:11:23.822Z,4.20
2022-12-31T15:14:13.223Z,3.50
2022-12-31T15:16:44.945Z,4.80
2022-12-31T15:19:18.952Z,4.90
2022-12-31T15:22:10.263Z,4.60
2022-12-31T15:24:43.997Z,5.90
2022-12-31T15:27:38.635Z,4.40
2022-12-31T15:30:07.367Z,5.00
2022-12-31T15:32:37.344Z,6.20
2022-12-31T15:35:45.738Z,6.50
2022-12-31T15:38:13.458Z,4.50
2022-12-31T15:40:49.583Z,4.50
2022-12-31T15:43:31.400Z,5.30
2022-12-31T15:45:59.782Z,4.40
2022-12-31T15:48:40.766Z,3.30
2022-12-31T15:51:20.221Z,6.60
2022-12-31T15:53:53.081Z,4.00
2022-12-31T15:56:38.329Z,5.30
2022-12-31T15:59:12.150Z,5.80
2022-12-31T16:01:41.781Z,4.50
2022-12-31T16:04:27.893Z,5.10
2022-12-31T16:07:00.567Z,3.90
2022-12-31T16:09:34.238Z,5.90
2022-12-31T16:12:04.936Z,4.50
2022-12-31T16:14:36.927Z,6.90
2022-12-31T16:17:05.232Z,4.30
2022-12-31T16:19:42.725Z,6.00
2022-12-31T16:22:16.211Z,5.30
2022-12-31T16:25:10.767Z,5.70
2022-12-31T16:27:34.723Z,8.60
2022-12-31T16:30:07.178Z,7.10
2022-12-31T16:32:38.248Z,6.40
2022-12-31T16:35:28.110Z,7.00
2022-12-31T16:38:17.400Z,7.40
2022-12-31T16:41:06.604Z,8.00
2022-12-31T16:43:41.057Z,7.40
2022-12-31T16:46:20.161Z,6.80
2022-12-31T16:48:50.819Z,5.40
2022-12-31T16:51:21.831Z,6.90
2022-12-31T16:53:50.313Z,6.30
2022-12-31T16:56:38.405Z,7.40
2022-12-31T16:59:25.378Z,9.00
2022-12-31T17:01:56.183Z,7.30
2022-12-31T17:04:24.495Z,10.90
2022-12-31T17:06:52.421Z,9.80
2022-12-31T17:09:33.743Z,11.30
2022-12-31T17:12:52.666Z,12.10
2022-12-31T17:15:29.830Z,15.20
2022-12-31T17:18:01.541Z,20.10
2022-12-31T17:20:31.436Z,19.10
2022-12-31T17:23:01.402Z,21.60
2022-12-31T17:25:34.478Z,19.80
2022-12-31T17:28:05.395Z,20.00
2022-12-31T17:30:33.298Z,23.50
2022-12-31T17:33:24.061Z,21.40
2022-12-31T17:35:56.895Z,17.10
2022-12-31T17:38:24.576Z,14.00
2022-12-31T17:40:54.045Z,11.80
2022-12-31T17:43:23.239Z,12.60
2022-12-31T17:45:51.830Z,11.10
2022-12-31T17:48:23.262Z,15.60
2022-12-31T17:50:56.556Z,13.50
2022-12-31T17:53:24.921Z,11.50
2022-12-31T17:55:54.856Z,9.20
2022-12-31T17:58:29.850Z,8.30
2022-12-31T18:00:58.223Z,11.10
2022-12-31T18:03:26.484Z,6.40
2022-12-31T18:05:54.344Z,11.00
2022-12-31T18:08:22.079Z,6.10
2022-12-31T18:10:50.968Z,6.40
2022-12-31T18:13:26.247Z,5.70
2022-12-31T18:15:54.684Z,7.00
2022-12-31T18:18:25.933Z,8.80
2022-12-31T18:20:58.063Z,7.70
2022-12-31T18:23:31.738Z,8.50
2022-12-31T18:25:59.493Z,6.30
2022-12-31T18:28:27.353Z,6.70
2022-12-31T18:30:55.926Z,7.50
2022-12-31T18:33:25.709Z,6.10
2022-12-31T18:36:10.222Z,7.40
2022-12-31T18:38:39.552Z,5.90
2022-12-31T18:41:07.818Z,7.40
2022-12-31T18:43:35.551Z,5.20
2022-12-31T18:46:03.494Z,4.70
2022-12-31T18:48:31.655Z,5.20
2022-12-31T18:50:59.673Z,6.90
2022-12-31T18:53:27.558Z,4.70
2022-12-31T18:55:57.190Z,6.00
2022-12-31T18:58:25.234Z,8.10
2022-12-31T19:00:53.047Z,5.00
2022-12-31T19:03:23.135Z,4.90
2022-12-31T19:05:52.152Z,14.00
2022-12-31T19:08:22.380Z,4.60
2022-12-31T19:10:51.926Z,8.10
2022-12-31T19:13:20.670Z,6.00
2022-12-31T19:15:50.795Z,3.20
2022-12-31T19:18:19.344Z,3.80
2022-12-31T19:20:47.760Z,6.70
2022-12-31T19:23:18.198Z,4.20
2022-12-31T19:25:47.725Z,3.70
2022-12-31T19:28:20.081Z,5.30
2022-12-31T19:30:47.901Z,3.50
2022-12-31T19:33:16.364Z,4.30
2022-12-31T19:35:45.109Z,4.00
2022-12-31T19:38:22.189Z,4.50
2022-12-31T19:40:51.900Z,2.60
2022-12-31T19:43:21.639Z,4.10
2022-12-31T19:45:50.528Z,3.70
2022-12-31T19:48:20.607Z,3.30
2022-12-31T19:50:51.127Z,3.90
2022-12-31T19:53:27.516Z,3.30
2022-12-31T19:55:55.317Z,4.30
2022-12-31T19:58:27.876Z,3.60
2022-12-31T20:01:02.425Z,3.20
2022-12-31T20:03:32.832Z,2.70
2022-12-31T20:06:03.380Z,3.30
2022-12-31T20:08:31.741Z,5.20
2022-12-31T20:11:11.194Z,2.80
2022-12-31T20:13:40.337Z,2.80
2022-12-31T20:16:13.697Z,3.50
2022-12-31T20:18:42.393Z,3.30
2022-12-31T20:21:12.424Z,3.80
2022-12-31T20:23:40.498Z,2.80
2022-12-31T20:26:08.886Z,2.80
2022-12-31T20:28:37.477Z,3.80
2022-12-31T20:31:10.811Z,2.50
2022-12-31T20:33:38.998Z,3.40
2022-12-31T20:36:09.182Z,2.80
2022-12-31T20:38:37.225Z,3.70
2022-12-31T20:41:12.798Z,2.60
2022-12-31T20:43:41.280Z,4.30
2022-12-31T20:46:16.087Z,2.80
2022-12-31T20:48:45.222Z,3.50
2022-12-31T20:51:14.745Z,3.30
2022-12-31T20:53:50.616Z,3.30
2022-12-31T20:56:18.697Z,2.60
2022-12-31T20:58:47.100Z,6.10
2022-12-31T21:01:16.844Z,5.00
2022-12-31T21:06:35.433Z,3.40
2022-12-31T21:09:05.715Z,3.60
2022-12-31T21:11:52.990Z,2.80
2022-12-31T21:14:21.413Z,5.10
2022-12-31T21:16:49.203Z,4.80
2022-12-31T21:19:17.150Z,2.90
2022-12-31T21:21:44.988Z,4.40
2022-12-31T21:24:12.709Z,4.10
2022-12-31T21:26:40.454Z,3.30
2022-12-31T21:29:08.391Z,2.90
2022-12-31T21:31:36.481Z,5.80
2022-12-31T21:34:04.335Z,3.80
2022-12-31T21:36:32.039Z,5.10
2022-12-31T21:38:59.820Z,2.70
2022-12-31T21:41:46.282Z,3.10
2022-12-31T21:44:14.129Z,4.40
2022-12-31T21:47:00.747Z,4.00
2022-12-31T21:49:29.494Z,2.50
2022-12-31T21:52:16.024Z,3.80
2022-12-31T21:55:02.658Z,4.10
2022-12-31T21:57:34.296Z,4.10
2022-12-31T22:00:42.514Z,4.50
2022-12-31T22:03:24.314Z,3.00
2022-12-31T22:06:00.763Z,4.00
2022-12-31T22:08:30.227Z,2.60
2022-12-31T22:10:58.087Z,3.40
2022-12-31T22:13:26.002Z,3.30
2022-12-31T22:16:00.406Z,3.70
2022-12-31T22:18:34.458Z,34.10
2022-12-31T22:21:05.880Z,23.40
2022-12-31T22:23:35.171Z,4.60
2022-12-31T22:26:04.489Z,5.60
2022-12-31T22:28:40.422Z,2.80
2022-12-31T22:31:19.930Z,4.10
2022-12-31T22:33:47.817Z,2.90
2022-12-31T22:36:18.715Z,3.00
2022-12-31T22:38:47.103Z,5.00
2022-12-31T22:41:18.246Z,3.10
2022-12-31T22:43:48.668Z,4.70
2022-12-31T22:46:18.989Z,3.60
2022-12-31T22:48:47.514Z,3.70
2022-12-31T22:51:15.977Z,2.40
2022-12-31T22:53:43.943Z,2.90
2022-12-31T22:56:13.883Z,2.30
2022-12-31T22:58:41.795Z,4.20
2022-12-31T23:01:22.012Z,2.80
2022-12-31T23:03:51.808Z,27.50
2022-12-31T23:06:22.072Z,6.10
2022-12-31T23:09:09.528Z,3.80
2022-12-31T23:11:38.643Z,5.10
2022-12-31T23:14:26.260Z,3.90
2022-12-31T23:17:30.854Z,3.10
2022-12-31T23:20:19.152Z,3.50
2022-12-31T23:23:06.123Z,4.10
2022-12-31T23:25:39.623Z,4.30
2022-12-31T23:28:11.451Z,3.90
2022-12-31T23:30:40.643Z,3.80
2022-12-31T23:33:15.621Z,5.80
2022-12-31T23:35:45.380Z,7.20
2022-12-31T23:38:14.760Z,5.50
2022-12-31T23:40:43.330Z,5.70
2022-12-31T23:43:19.852Z,5.40
2022-12-31T23:45:50.019Z,3.30
2022-12-31T23:48:17.818Z,5.80
2022-12-31T23:50:52.987Z,5.10
2022-12-31T23:53:23.123Z,3.90
2022-12-31T23:55:52.141Z,6.10
2022-12-31T23:58:21.109Z,4.60
